METAR Data
IDs: Format: Raw Decoded Include TAF

Data at: 1346 UTC 07 Jul 2020

KPUC 071253Z AUTO 02008KT 10SM CLR 17/M05 A3005 RMK AO2 SLP069 T01671050
KPUC 071153Z AUTO 03007KT 10SM CLR 14/M06 A3004 RMK AO2 SLP074 T01441056 10228 20139 53001
KPUC 071053Z AUTO 07004KT 10SM CLR 15/M06 A3002 RMK AO2 SLP066 T01501056
KPUC 070953Z AUTO 03006KT 10SM CLR 16/M05 A3003 RMK AO2 SLP068 T01611050
KPUC 070853Z AUTO 00000KT 10SM CLR 18/M05 A3004 RMK AO2 SLP063 T01781050 53005
KPUC 070753Z AUTO 03007KT 10SM CLR 19/M06 A3003 RMK AO2 SLP062 T01891056
KPUC 070653Z AUTO 01008KT 10SM CLR 21/M06 A3002 RMK AO2 SLP053 T02111056 403610150
KPUC 070553Z AUTO 04005KT 10SM CLR 20/M05 A3002 RMK AO2 SLP060 T02001050 10344 20200 51010
KPUC 070453Z AUTO 03006KT 10SM CLR 22/M04 A3001 RMK AO2 SLP054 T02221039
KPUC 070353Z AUTO 12004KT 10SM CLR 26/M03 A3000 RMK AO2 SLP045 T02611028
KPUC 070253Z AUTO 20005KT 10SM CLR 29/M03 A2999 RMK AO2 SLP041 T02891028 56007
KPUC 070153Z AUTO 20006KT 10SM CLR 32/M02 A2999 RMK AO2 SLP034 T03221017
KPUC 070053Z AUTO 22008KT 10SM CLR 34/M02 A3000 RMK AO2 SLP050 T03441017
KPUC 062353Z AUTO 21012G16KT 10SM CLR 34/M02 A3002 RMK AO2 SLP054 T03441022 10361 20306 58016
KPUC 062253Z AUTO 15010KT 10SM CLR 34/M02 A3004 RMK AO2 SLP068 T03441022
KPUC 062153Z AUTO 18010G19KT 10SM CLR 34/M03 A3006 RMK AO2 SLP071 T03391028
KPUC 062053Z AUTO 27003G21KT 10SM CLR 34/M02 A3007 RMK AO2 SLP077 T03391022 58019
KPUC 061953Z AUTO 15003KT 10SM CLR 33/M02 A3010 RMK AO2 SLP084 T03331017
KPUC 061853Z AUTO 17005KT 10SM CLR 32/M03 A3013 RMK AO2 SLP099 T03221028
KPUC 061753Z AUTO VRB03KT 10SM CLR 31/M03 A3014 RMK AO2 SLP089 T03111028 10311 20156 58001
KPUC 061653Z AUTO 17005KT 10SM CLR 29/M03 A3014 RMK AO2 SLP094 T02941033
KPUC 061553Z AUTO 14006KT 10SM CLR 27/M04 A3015 RMK AO2 SLP093 T02721044
KPUC 061453Z AUTO 00000KT 10SM CLR 24/M05 A3014 RMK AO2 SLP098 T02391050 51012
KPUC 061353Z AUTO 00000KT 10SM CLR 23/M05 A3013 RMK AO2 SLP086 T02281050
KPUC 061253Z AUTO 00000KT 10SM CLR 17/M06 A3012 RMK AO2 SLP098 T01671056
KPUC 061153Z AUTO 05007KT 10SM CLR 17/M08 A3009 RMK AO2 SLP083 T01721078 10228 20150 53005
KPUC 061053Z AUTO 01004KT 10SM CLR 16/M08 A3009 RMK AO2 SLP087 T01561083
KPUC 060953Z AUTO 02008KT 10SM CLR 17/M08 A3008 RMK AO2 SLP085 T01671083
KPUC 060853Z AUTO 00000KT 10SM CLR 17/M08 A3008 RMK AO2 SLP080 T01671078 56002
KPUC 060753Z AUTO 03005KT 10SM CLR 18/M08 A3008 RMK AO2 SLP080 T01831083
KPUC 060653Z AUTO 04007KT 10SM CLR 18/M07 A3007 RMK AO2 SLP086 T01781072 403500144
KPUC 060553Z AUTO 23003KT 10SM CLR 23/M06 A3008 RMK AO2 SLP075 T02281061 10344 20211 53006
KPUC 060453Z AUTO 00000KT 10SM CLR 24/M07 A3008 RMK AO2 SLP077 T02391067
KPUC 060353Z AUTO 33009KT 10SM CLR 27/M07 A3007 RMK AO2 SLP066 T02721067
KPUC 060253Z AUTO 32007KT 10SM CLR 28/M06 A3006 RMK AO2 SLP068 T02781061 53001
KPUC 060153Z AUTO 29007G17KT 10SM CLR 32/M05 A3006 RMK AO2 SLP064 T03171050